Aikoumaru No.8 — JD3288 — position and weather

sailwx.info

Track history (hours):
 
Tides and Currents Weather Stations Pressure Air Temp Water Temp Dewpoint Dewpoint Depression Visibility Wind Speed Wind Dir Waves Ship Positions

Aikoumaru No.8

Last reported at 2017-Sep-18 22:51 UTC. Time now 2017-Sep-19 16:57 UTC.
Position N 34°04' E 135°02'.

Length 74 m; draft 5 m.

Type: Cargo ship. MMSI: 431003153.

Date/timePositionNaut miles runAvg speedWind from/ knotsBaromVisibWave heightAir tempDewpointWater temp
2017-Sep-18 22:51N 34°04' E 135°02'411.1
2017-Sep-18 22:29N 34°08' E 135°02'511.1
2017-Sep-18 22:01N 34°13' E 135°03'910.8
2017-Sep-18 21:11N 34°22' E 135°06'311.4
2017-Sep-18 20:56N 34°24' E 135°08'511.5
2017-Sep-18 20:28N 34°28' E 135°12'611.9
2017-Sep-18 19:56N 34°33' E 135°18'511.7
2017-Sep-18 19:31N 34°36' E 135°22'5 9.4
2017-Sep-18 19:01N 34°35' E 135°28'0 0.0
2017-Sep-18 01:28N 34°35' E 135°28'2 3.7
2017-Sep-18 01:00N 34°35' E 135°26'0 0.1
2017-Sep-18 00:24N 34°35' E 135°25'0 0.0
2017-Sep-18 00:00N 34°35' E 135°25'0 0.0
2017-Sep-17 23:24N 34°35' E 135°25'0 0.0
2017-Sep-17 22:42N 34°35' E 135°25'0 0.0
2017-Sep-17 22:24N 34°35' E 135°25'0 0.0
2017-Sep-17 22:00N 34°35' E 135°25'0 0.0
2017-Sep-17 20:54N 34°35' E 135°25'0 0.0
2017-Sep-17 20:30N 34°35' E 135°25'0 0.0
2017-Sep-17 20:00N 34°35' E 135°25'0 0.0
2017-Sep-17 19:30N 34°35' E 135°25'0 0.0
2017-Sep-17 18:54N 34°35' E 135°25'0 0.0
2017-Sep-17 17:42N 34°35' E 135°25'0 0.0
2017-Sep-17 17:24N 34°35' E 135°25'0 0.0
2017-Sep-17 16:54N 34°35' E 135°25'0 0.0
2017-Sep-17 16:30N 34°35' E 135°25'0 0.0
2017-Sep-17 14:54N 34°35' E 135°25'0 0.0
2017-Sep-17 11:42N 34°35' E 135°25'0 0.0
2017-Sep-17 11:12N 34°35' E 135°25'0 0.0
2017-Sep-17 10:48N 34°35' E 135°25'0 0.0
2017-Sep-17 10:30N 34°35' E 135°25'0 0.0
2017-Sep-17 09:54N 34°35' E 135°25'0 0.0
2017-Sep-17 09:24N 34°35' E 135°25'0 0.0
2017-Sep-17 06:48N 34°35' E 135°25'0 0.0
2017-Sep-17 03:48N 34°35' E 135°25'0 0.0
2017-Sep-17 03:18N 34°35' E 135°25'0 0.0
2017-Sep-17 03:00N 34°35' E 135°25'0 0.0
2017-Sep-17 01:24N 34°35' E 135°25'0 0.0
2017-Sep-17 00:48N 34°35' E 135°25'0 0.0
2017-Sep-17 00:30N 34°35' E 135°25'0 0.0
2017-Sep-17 00:00N 34°35' E 135°25'0 0.0
2017-Sep-16 23:12N 34°35' E 135°25'0 0.0
2017-Sep-16 23:00N 34°35' E 135°25'0 0.1
2017-Sep-16 22:00N 34°35' E 135°25'0 0.0
2017-Sep-16 21:24N 34°35' E 135°25'0 0.0
2017-Sep-16 21:00N 34°35' E 135°25'0 0.0
2017-Sep-16 20:30N 34°35' E 135°25'0 0.0
2017-Sep-16 19:48N 34°35' E 135°25'0 0.0
2017-Sep-16 18:30N 34°35' E 135°25'0 0.0
2017-Sep-16 17:54N 34°35' E 135°25'0 0.0
2017-Sep-16 17:06N 34°35' E 135°25'0 0.0
2017-Sep-16 17:00N 34°35' E 135°25'0 0.0
2017-Sep-16 16:30N 34°35' E 135°25'0 0.0
2017-Sep-16 15:48N 34°35' E 135°25'0 0.0
2017-Sep-16 15:30N 34°35' E 135°25'0 0.0
2017-Sep-16 14:54N 34°35' E 135°25'0 0.0
2017-Sep-16 14:30N 34°35' E 135°25'0 0.0
2017-Sep-16 13:48N 34°35' E 135°25'0 0.0
2017-Sep-16 13:30N 34°35' E 135°25'0 0.0
2017-Sep-16 13:00N 34°35' E 135°25'0 0.1
2017-Sep-16 12:30N 34°35' E 135°25'0 0.0
2017-Sep-16 12:00N 34°35' E 135°25'0 0.1
2017-Sep-16 11:24N 34°35' E 135°25'0 0.0
2017-Sep-16 10:54N 34°35' E 135°25'0 0.0
2017-Sep-16 10:06N 34°35' E 135°25'0 0.0
2017-Sep-16 08:24N 34°35' E 135°25'0 1.0
2017-Sep-16 07:57N 34°35' E 135°25'2 0.1
2017-Sep-15 10:23N 34°34' E 135°27'1 0.1
2017-Sep-15 01:58N 34°35' E 135°27'5 9.6
2017-Sep-15 01:30N 34°36' E 135°22'612.6
2017-Sep-15 01:00N 34°31' E 135°16'712.2
2017-Sep-15 00:24N 34°26' E 135°11'1311.3
2017-Sep-14 23:13N 34°14' E 135°03'312.6
2017-Sep-14 22:59N 34°11' E 135°03'219 6.3
2017-Sep-13 12:08N 34°59' E 139°22'310.8
2017-Sep-13 11:54N 34°60' E 139°25'410.9
2017-Sep-13 11:30N 35°02' E 139°30'611.5
2017-Sep-13 10:59N 35°05' E 139°36'611.9
2017-Sep-13 10:30N 35°07' E 139°42'611.6
2017-Sep-13 10:00N 35°12' E 139°46'510.5
2017-Sep-13 09:30N 35°17' E 139°44'611.1
2017-Sep-13 09:00N 35°22' E 139°41'2 4.4
2017-Sep-13 08:30N 35°23' E 139°38'0 0.0
2017-Sep-13 08:00N 35°23' E 139°38'0 0.0
2017-Sep-13 07:30N 35°23' E 139°38'0 0.0
2017-Sep-13 07:00N 35°23' E 139°38'0 0.0
2017-Sep-13 06:30N 35°23' E 139°38'0 0.0
2017-Sep-13 06:00N 35°23' E 139°38'0 0.0
2017-Sep-13 05:30N 35°23' E 139°38'0 0.0
2017-Sep-13 05:00N 35°23' E 139°38'0 0.0
2017-Sep-13 04:30N 35°23' E 139°38'0 0.0
2017-Sep-13 04:00N 35°23' E 139°38'0 0.0
2017-Sep-13 03:30N 35°23' E 139°38'0 0.0
2017-Sep-13 03:00N 35°23' E 139°38'0 0.5
2017-Sep-13 02:29N 35°23' E 139°39'0 0.3
2017-Sep-13 02:00N 35°23' E 139°39'1 1.1
2017-Sep-13 01:30N 35°24' E 139°39'0 0.0
2017-Sep-13 01:00N 35°24' E 139°39'0 0.0
2017-Sep-13 00:30N 35°24' E 139°39'0 0.0
2017-Sep-13 00:00N 35°24' E 139°39'0 0.0
2017-Sep-12 23:30N 35°24' E 139°39'0 0.0
2017-Sep-12 23:00N 35°24' E 139°39'0 0.0
2017-Sep-12 22:30N 35°24' E 139°39'0 0.0
2017-Sep-12 22:00N 35°24' E 139°39'0 0.0
2017-Sep-12 21:30N 35°24' E 139°39'0 0.0
2017-Sep-12 21:00N 35°24' E 139°39'0 0.0
2017-Sep-12 20:30N 35°24' E 139°39'0 0.0
2017-Sep-12 20:00N 35°24' E 139°39'0 0.0
2017-Sep-12 19:30N 35°24' E 139°39'0 0.0
2017-Sep-12 18:59N 35°24' E 139°39'0 0.0
2017-Sep-12 18:30N 35°24' E 139°39'0 0.0
2017-Sep-12 18:00N 35°24' E 139°39'0 0.0
2017-Sep-12 17:30N 35°24' E 139°39'0 0.0
2017-Sep-12 17:00N 35°24' E 139°39'0 0.0
2017-Sep-12 16:29N 35°24' E 139°39'0 0.1
2017-Sep-12 15:59N 35°24' E 139°39'0 0.1
2017-Sep-12 15:29N 35°24' E 139°39'0 0.0
2017-Sep-12 15:00N 35°24' E 139°39'0 0.0
2017-Sep-12 14:30N 35°24' E 139°39'0 0.0
2017-Sep-12 14:00N 35°24' E 139°39'0 0.0
2017-Sep-12 13:29N 35°24' E 139°39'0 0.1
2017-Sep-12 13:00N 35°24' E 139°39'0 0.1
2017-Sep-12 12:29N 35°24' E 139°39'0 0.1
2017-Sep-12 12:00N 35°24' E 139°39'0 0.0
2017-Sep-12 11:30N 35°24' E 139°39'0 0.1
2017-Sep-12 11:00N 35°24' E 139°39'0 0.0
2017-Sep-12 10:30N 35°24' E 139°39'0 0.0
2017-Sep-12 09:59N 35°24' E 139°39'0 0.0
2017-Sep-12 09:30N 35°24' E 139°39'0 0.1
2017-Sep-12 08:59N 35°24' E 139°39'0 0.0
2017-Sep-12 08:30N 35°24' E 139°39'0 0.0
2017-Sep-12 07:59N 35°24' E 139°39'0 0.0
2017-Sep-12 07:30N 35°24' E 139°39'0 0.0
2017-Sep-12 07:00N 35°24' E 139°39'0 0.0
2017-Sep-12 06:30N 35°24' E 139°39'0 0.0
2017-Sep-12 06:00N 35°24' E 139°39'0 0.0
2017-Sep-12 05:30N 35°24' E 139°39'0 0.0
2017-Sep-12 05:00N 35°24' E 139°39'0 0.0
2017-Sep-12 04:31N 35°24' E 139°39'0 0.0
2017-Sep-12 04:00N 35°24' E 139°39'3 5.3
2017-Sep-12 03:30N 35°24' E 139°42'612.0
2017-Sep-12 03:00N 35°28' E 139°48'611.6
2017-Sep-12 02:30N 35°32' E 139°53'9 1.9
2017-Sep-11 21:46N 35°41' E 139°58'2 7.0
2017-Sep-11 21:31N 35°39' E 139°58'2 0.5
2017-Sep-11 17:33N 35°37' E 139°57'0 0.0
2017-Sep-11 17:27N 35°37' E 139°57'0 0.0
2017-Sep-11 16:54N 35°37' E 139°57'0 0.0
2017-Sep-11 08:58N 35°37' E 139°57'2 0.7
2017-Sep-11 05:44N 35°40' E 139°58'3 8.5
2017-Sep-11 05:24N 35°37' E 139°58'1 2.3
2017-Sep-11 04:44N 35°37' E 139°56'0 0.1
2017-Sep-11 04:23N 35°37' E 139°56'0 0.0
2017-Sep-11 03:56N 35°37' E 139°56'0 0.0
2017-Sep-11 03:29N 35°37' E 139°56'0 0.0
2017-Sep-10 21:11N 35°37' E 139°56'0 0.0
2017-Sep-10 20:53N 35°37' E 139°56'0 0.0
2017-Sep-10 20:26N 35°37' E 139°56'0 0.0
2017-Sep-10 19:59N 35°37' E 139°56'0 0.0
2017-Sep-10 11:05N 35°37' E 139°56'0 0.1
2017-Sep-10 10:59N 35°37' E 139°56'0 0.0
2017-Sep-10 05:04N 35°37' E 139°56'0 0.1
2017-Sep-10 04:59N 35°37' E 139°56'0 0.1
2017-Sep-10 04:12N 35°37' E 139°56'1 7.8
2017-Sep-10 04:00N 35°36' E 139°57'611.7
2017-Sep-10 03:30N 35°31' E 139°53'611.6
2017-Sep-10 03:00N 35°26' E 139°49'611.1
2017-Sep-10 02:30N 35°21' E 139°45'5 9.9
2017-Sep-10 02:00N 35°16' E 139°46'510.9
2017-Sep-10 01:30N 35°11' E 139°47'611.9
2017-Sep-10 01:00N 35°06' E 139°44'612.5
2017-Sep-10 00:30N 35°02' E 139°38'234 9.9
2017-Sep-09 00:58N 34°04' E 135°03'611.3
2017-Sep-09 00:26N 34°10' E 135°03'511.1
2017-Sep-09 00:01N 34°15' E 135°03'  
Track history (hours):
 
Tides and Currents Weather Stations Pressure Air Temp Water Temp Dewpoint Dewpoint Depression Visibility Wind Speed Wind Dir Waves Ship Positions

Aikoumaru No.8

Last reported at 2017-Sep-18 22:51 UTC. Time now 2017-Sep-19 16:57 UTC.
Position N 34°04' E 135°02'.

Length 74 m; draft 5 m.

Type: Cargo ship. MMSI: 431003153.

Date/timePositionNaut miles runAvg speedWind from/ knotsBaromVisibWave heightAir tempDewpointWater temp
2017-Sep-18 22:51N 34°04' E 135°02'411.1
2017-Sep-18 22:29N 34°08' E 135°02'511.1
2017-Sep-18 22:01N 34°13' E 135°03'910.8
2017-Sep-18 21:11N 34°22' E 135°06'311.4
2017-Sep-18 20:56N 34°24' E 135°08'511.5
2017-Sep-18 20:28N 34°28' E 135°12'611.9
2017-Sep-18 19:56N 34°33' E 135°18'511.7
2017-Sep-18 19:31N 34°36' E 135°22'5 9.4
2017-Sep-18 19:01N 34°35' E 135°28'0 0.0
2017-Sep-18 01:28N 34°35' E 135°28'2 3.7
2017-Sep-18 01:00N 34°35' E 135°26'0 0.1
2017-Sep-18 00:24N 34°35' E 135°25'0 0.0
2017-Sep-18 00:00N 34°35' E 135°25'0 0.0
2017-Sep-17 23:24N 34°35' E 135°25'0 0.0
2017-Sep-17 22:42N 34°35' E 135°25'0 0.0
2017-Sep-17 22:24N 34°35' E 135°25'0 0.0
2017-Sep-17 22:00N 34°35' E 135°25'0 0.0
2017-Sep-17 20:54N 34°35' E 135°25'0 0.0
2017-Sep-17 20:30N 34°35' E 135°25'0 0.0
2017-Sep-17 20:00N 34°35' E 135°25'0 0.0
2017-Sep-17 19:30N 34°35' E 135°25'0 0.0
2017-Sep-17 18:54N 34°35' E 135°25'0 0.0
2017-Sep-17 17:42N 34°35' E 135°25'0 0.0
2017-Sep-17 17:24N 34°35' E 135°25'0 0.0
2017-Sep-17 16:54N 34°35' E 135°25'0 0.0
2017-Sep-17 16:30N 34°35' E 135°25'0 0.0
2017-Sep-17 14:54N 34°35' E 135°25'0 0.0
2017-Sep-17 11:42N 34°35' E 135°25'0 0.0
2017-Sep-17 11:12N 34°35' E 135°25'0 0.0
2017-Sep-17 10:48N 34°35' E 135°25'0 0.0
2017-Sep-17 10:30N 34°35' E 135°25'0 0.0
2017-Sep-17 09:54N 34°35' E 135°25'0 0.0
2017-Sep-17 09:24N 34°35' E 135°25'0 0.0
2017-Sep-17 06:48N 34°35' E 135°25'0 0.0
2017-Sep-17 03:48N 34°35' E 135°25'0 0.0
2017-Sep-17 03:18N 34°35' E 135°25'0 0.0
2017-Sep-17 03:00N 34°35' E 135°25'0 0.0
2017-Sep-17 01:24N 34°35' E 135°25'0 0.0
2017-Sep-17 00:48N 34°35' E 135°25'0 0.0
2017-Sep-17 00:30N 34°35' E 135°25'0 0.0
2017-Sep-17 00:00N 34°35' E 135°25'0 0.0
2017-Sep-16 23:12N 34°35' E 135°25'0 0.0
2017-Sep-16 23:00N 34°35' E 135°25'0 0.1
2017-Sep-16 22:00N 34°35' E 135°25'0 0.0
2017-Sep-16 21:24N 34°35' E 135°25'0 0.0
2017-Sep-16 21:00N 34°35' E 135°25'0 0.0
2017-Sep-16 20:30N 34°35' E 135°25'0 0.0
2017-Sep-16 19:48N 34°35' E 135°25'0 0.0
2017-Sep-16 18:30N 34°35' E 135°25'0 0.0
2017-Sep-16 17:54N 34°35' E 135°25'0 0.0
2017-Sep-16 17:06N 34°35' E 135°25'0 0.0
2017-Sep-16 17:00N 34°35' E 135°25'0 0.0
2017-Sep-16 16:30N 34°35' E 135°25'0 0.0
2017-Sep-16 15:48N 34°35' E 135°25'0 0.0
2017-Sep-16 15:30N 34°35' E 135°25'0 0.0
2017-Sep-16 14:54N 34°35' E 135°25'0 0.0
2017-Sep-16 14:30N 34°35' E 135°25'0 0.0
2017-Sep-16 13:48N 34°35' E 135°25'0 0.0
2017-Sep-16 13:30N 34°35' E 135°25'0 0.0
2017-Sep-16 13:00N 34°35' E 135°25'0 0.1
2017-Sep-16 12:30N 34°35' E 135°25'0 0.0
2017-Sep-16 12:00N 34°35' E 135°25'0 0.1
2017-Sep-16 11:24N 34°35' E 135°25'0 0.0
2017-Sep-16 10:54N 34°35' E 135°25'0 0.0
2017-Sep-16 10:06N 34°35' E 135°25'0 0.0
2017-Sep-16 08:24N 34°35' E 135°25'0 1.0
2017-Sep-16 07:57N 34°35' E 135°25'2 0.1
2017-Sep-15 10:23N 34°34' E 135°27'1 0.1
2017-Sep-15 01:58N 34°35' E 135°27'5 9.6
2017-Sep-15 01:30N 34°36' E 135°22'612.6
2017-Sep-15 01:00N 34°31' E 135°16'712.2
2017-Sep-15 00:24N 34°26' E 135°11'1311.3
2017-Sep-14 23:13N 34°14' E 135°03'312.6
2017-Sep-14 22:59N 34°11' E 135°03'219 6.3
2017-Sep-13 12:08N 34°59' E 139°22'310.8
2017-Sep-13 11:54N 34°60' E 139°25'410.9
2017-Sep-13 11:30N 35°02' E 139°30'611.5
2017-Sep-13 10:59N 35°05' E 139°36'611.9
2017-Sep-13 10:30N 35°07' E 139°42'611.6
2017-Sep-13 10:00N 35°12' E 139°46'510.5
2017-Sep-13 09:30N 35°17' E 139°44'611.1
2017-Sep-13 09:00N 35°22' E 139°41'2 4.4
2017-Sep-13 08:30N 35°23' E 139°38'0 0.0
2017-Sep-13 08:00N 35°23' E 139°38'0 0.0
2017-Sep-13 07:30N 35°23' E 139°38'0 0.0
2017-Sep-13 07:00N 35°23' E 139°38'0 0.0
2017-Sep-13 06:30N 35°23' E 139°38'0 0.0
2017-Sep-13 06:00N 35°23' E 139°38'0 0.0
2017-Sep-13 05:30N 35°23' E 139°38'0 0.0
2017-Sep-13 05:00N 35°23' E 139°38'0 0.0
2017-Sep-13 04:30N 35°23' E 139°38'0 0.0
2017-Sep-13 04:00N 35°23' E 139°38'0 0.0
2017-Sep-13 03:30N 35°23' E 139°38'0 0.0
2017-Sep-13 03:00N 35°23' E 139°38'0 0.5
2017-Sep-13 02:29N 35°23' E 139°39'0 0.3
2017-Sep-13 02:00N 35°23' E 139°39'1 1.1
2017-Sep-13 01:30N 35°24' E 139°39'0 0.0
2017-Sep-13 01:00N 35°24' E 139°39'0 0.0
2017-Sep-13 00:30N 35°24' E 139°39'0 0.0
2017-Sep-13 00:00N 35°24' E 139°39'0 0.0
2017-Sep-12 23:30N 35°24' E 139°39'0 0.0
2017-Sep-12 23:00N 35°24' E 139°39'0 0.0
2017-Sep-12 22:30N 35°24' E 139°39'0 0.0
2017-Sep-12 22:00N 35°24' E 139°39'0 0.0
2017-Sep-12 21:30N 35°24' E 139°39'0 0.0
2017-Sep-12 21:00N 35°24' E 139°39'0 0.0
2017-Sep-12 20:30N 35°24' E 139°39'0 0.0
2017-Sep-12 20:00N 35°24' E 139°39'0 0.0
2017-Sep-12 19:30N 35°24' E 139°39'0 0.0
2017-Sep-12 18:59N 35°24' E 139°39'0 0.0
2017-Sep-12 18:30N 35°24' E 139°39'0 0.0
2017-Sep-12 18:00N 35°24' E 139°39'0 0.0
2017-Sep-12 17:30N 35°24' E 139°39'0 0.0
2017-Sep-12 17:00N 35°24' E 139°39'0 0.0
2017-Sep-12 16:29N 35°24' E 139°39'0 0.1
2017-Sep-12 15:59N 35°24' E 139°39'0 0.1
2017-Sep-12 15:29N 35°24' E 139°39'0 0.0
2017-Sep-12 15:00N 35°24' E 139°39'0 0.0
2017-Sep-12 14:30N 35°24' E 139°39'0 0.0
2017-Sep-12 14:00N 35°24' E 139°39'0 0.0
2017-Sep-12 13:29N 35°24' E 139°39'0 0.1
2017-Sep-12 13:00N 35°24' E 139°39'0 0.1
2017-Sep-12 12:29N 35°24' E 139°39'0 0.1
2017-Sep-12 12:00N 35°24' E 139°39'0 0.0
2017-Sep-12 11:30N 35°24' E 139°39'0 0.1
2017-Sep-12 11:00N 35°24' E 139°39'0 0.0
2017-Sep-12 10:30N 35°24' E 139°39'0 0.0
2017-Sep-12 09:59N 35°24' E 139°39'0 0.0
2017-Sep-12 09:30N 35°24' E 139°39'0 0.1
2017-Sep-12 08:59N 35°24' E 139°39'0 0.0
2017-Sep-12 08:30N 35°24' E 139°39'0 0.0
2017-Sep-12 07:59N 35°24' E 139°39'0 0.0
2017-Sep-12 07:30N 35°24' E 139°39'0 0.0
2017-Sep-12 07:00N 35°24' E 139°39'0 0.0
2017-Sep-12 06:30N 35°24' E 139°39'0 0.0
2017-Sep-12 06:00N 35°24' E 139°39'0 0.0
2017-Sep-12 05:30N 35°24' E 139°39'0 0.0
2017-Sep-12 05:00N 35°24' E 139°39'0 0.0
2017-Sep-12 04:31N 35°24' E 139°39'0 0.0
2017-Sep-12 04:00N 35°24' E 139°39'3 5.3
2017-Sep-12 03:30N 35°24' E 139°42'612.0
2017-Sep-12 03:00N 35°28' E 139°48'611.6
2017-Sep-12 02:30N 35°32' E 139°53'9 1.9
2017-Sep-11 21:46N 35°41' E 139°58'2 7.0
2017-Sep-11 21:31N 35°39' E 139°58'2 0.5
2017-Sep-11 17:33N 35°37' E 139°57'0 0.0
2017-Sep-11 17:27N 35°37' E 139°57'0 0.0
2017-Sep-11 16:54N 35°37' E 139°57'0 0.0
2017-Sep-11 08:58N 35°37' E 139°57'2 0.7
2017-Sep-11 05:44N 35°40' E 139°58'3 8.5
2017-Sep-11 05:24N 35°37' E 139°58'1 2.3
2017-Sep-11 04:44N 35°37' E 139°56'0 0.1
2017-Sep-11 04:23N 35°37' E 139°56'0 0.0
2017-Sep-11 03:56N 35°37' E 139°56'0 0.0
2017-Sep-11 03:29N 35°37' E 139°56'0 0.0
2017-Sep-10 21:11N 35°37' E 139°56'0 0.0
2017-Sep-10 20:53N 35°37' E 139°56'0 0.0
2017-Sep-10 20:26N 35°37' E 139°56'0 0.0
2017-Sep-10 19:59N 35°37' E 139°56'0 0.0
2017-Sep-10 11:05N 35°37' E 139°56'0 0.1
2017-Sep-10 10:59N 35°37' E 139°56'0 0.0
2017-Sep-10 05:04N 35°37' E 139°56'0 0.1
2017-Sep-10 04:59N 35°37' E 139°56'0 0.1
2017-Sep-10 04:12N 35°37' E 139°56'1 7.8
2017-Sep-10 04:00N 35°36' E 139°57'611.7
2017-Sep-10 03:30N 35°31' E 139°53'611.6
2017-Sep-10 03:00N 35°26' E 139°49'611.1
2017-Sep-10 02:30N 35°21' E 139°45'5 9.9
2017-Sep-10 02:00N 35°16' E 139°46'510.9
2017-Sep-10 01:30N 35°11' E 139°47'611.9
2017-Sep-10 01:00N 35°06' E 139°44'612.5
2017-Sep-10 00:30N 35°02' E 139°38'234 9.9
2017-Sep-09 00:58N 34°04' E 135°03'611.3
2017-Sep-09 00:26N 34°10' E 135°03'511.1
2017-Sep-09 00:01N 34°15' E 135°03'  

Dump ship's entire track history